sensor_id;sensor_type;location;lat;lon;timestamp;P1;durP1;ratioP1;P2;durP2;ratioP2
73023;SDS011;61199;47.526;8.538;2022-08-19T00:01:33;22.37;;;17.23;;
73023;SDS011;61199;47.526;8.538;2022-08-19T00:04:04;29.20;;;19.20;;
73023;SDS011;61199;47.526;8.538;2022-08-19T00:06:34;23.30;;;17.70;;
73023;SDS011;61199;47.526;8.538;2022-08-19T00:09:02;24.53;;;17.97;;
73023;SDS011;61199;47.526;8.538;2022-08-19T00:11:31;24.37;;;17.13;;
73023;SDS011;61199;47.526;8.538;2022-08-19T00:13:57;30.10;;;19.30;;
73023;SDS011;61199;47.526;8.538;2022-08-19T00:16:25;27.23;;;19.73;;
73023;SDS011;61199;47.526;8.538;2022-08-19T00:18:55;26.37;;;19.63;;
73023;SDS011;61199;47.526;8.538;2022-08-19T00:21:25;23.40;;;17.93;;
73023;SDS011;61199;47.526;8.538;2022-08-19T00:23:56;29.00;;;20.30;;
73023;SDS011;61199;47.526;8.538;2022-08-19T00:26:26;27.03;;;19.77;;
73023;SDS011;61199;47.526;8.538;2022-08-19T00:28:54;28.57;;;18.27;;
73023;SDS011;61199;47.526;8.538;2022-08-19T00:31:21;25.30;;;19.57;;
73023;SDS011;61199;47.526;8.538;2022-08-19T00:33:48;33.07;;;22.10;;
73023;SDS011;61199;47.526;8.538;2022-08-19T00:36:17;30.03;;;21.50;;
73023;SDS011;61199;47.526;8.538;2022-08-19T00:38:44;30.13;;;22.07;;
73023;SDS011;61199;47.526;8.538;2022-08-19T00:41:14;31.70;;;22.07;;
73023;SDS011;61199;47.526;8.538;2022-08-19T00:46:46;29.70;;;20.47;;
73023;SDS011;61199;47.526;8.538;2022-08-19T00:49:38;28.93;;;19.83;;
73023;SDS011;61199;47.526;8.538;2022-08-19T00:52:08;34.53;;;23.73;;
73023;SDS011;61199;47.526;8.538;2022-08-19T00:54:39;30.67;;;21.60;;
73023;SDS011;61199;47.526;8.538;2022-08-19T00:57:09;33.43;;;23.83;;
73023;SDS011;61199;47.526;8.538;2022-08-19T00:59:41;82.00;;;48.60;;
73023;SDS011;61199;47.526;8.538;2022-08-19T01:02:28;78.07;;;46.93;;
73023;SDS011;61199;47.526;8.538;2022-08-19T01:04:56;34.97;;;24.10;;
73023;SDS011;61199;47.526;8.538;2022-08-19T01:07:22;36.77;;;24.70;;
73023;SDS011;61199;47.526;8.538;2022-08-19T01:09:49;36.53;;;25.47;;
73023;SDS011;61199;47.526;8.538;2022-08-19T01:12:15;41.23;;;25.90;;
73023;SDS011;61199;47.526;8.538;2022-08-19T01:14:43;33.60;;;24.27;;
73023;SDS011;61199;47.526;8.538;2022-08-19T01:17:11;34.40;;;24.23;;
73023;SDS011;61199;47.526;8.538;2022-08-19T01:19:40;32.93;;;20.43;;
73023;SDS011;61199;47.526;8.538;2022-08-19T01:22:19;40.17;;;25.47;;
73023;SDS011;61199;47.526;8.538;2022-08-19T01:24:58;38.37;;;26.60;;
73023;SDS011;61199;47.526;8.538;2022-08-19T01:27:25;32.83;;;24.13;;
73023;SDS011;61199;47.526;8.538;2022-08-19T01:29:55;33.93;;;23.90;;
73023;SDS011;61199;47.526;8.538;2022-08-19T01:32:22;33.17;;;23.40;;
73023;SDS011;61199;47.526;8.538;2022-08-19T01:34:59;37.67;;;25.27;;
73023;SDS011;61199;47.526;8.538;2022-08-19T01:37:28;35.60;;;24.67;;
73023;SDS011;61199;47.526;8.538;2022-08-19T01:39:56;37.07;;;25.20;;
73023;SDS011;61199;47.526;8.538;2022-08-19T01:42:22;38.03;;;24.43;;
73023;SDS011;61199;47.526;8.538;2022-08-19T01:44:55;36.37;;;25.23;;
73023;SDS011;61199;47.526;8.538;2022-08-19T01:47:22;36.63;;;25.30;;
73023;SDS011;61199;47.526;8.538;2022-08-19T01:49:48;38.83;;;25.70;;
73023;SDS011;61199;47.526;8.538;2022-08-19T01:52:15;43.37;;;26.73;;
73023;SDS011;61199;47.526;8.538;2022-08-19T01:54:41;38.83;;;25.90;;
73023;SDS011;61199;47.526;8.538;2022-08-19T01:57:08;38.97;;;26.67;;
73023;SDS011;61199;47.526;8.538;2022-08-19T01:59:38;36.50;;;24.77;;
73023;SDS011;61199;47.526;8.538;2022-08-19T02:02:06;39.30;;;25.33;;
73023;SDS011;61199;47.526;8.538;2022-08-19T02:04:34;40.17;;;24.80;;
73023;SDS011;61199;47.526;8.538;2022-08-19T02:07:03;37.23;;;24.53;;
73023;SDS011;61199;47.526;8.538;2022-08-19T02:09:31;34.37;;;23.50;;
73023;SDS011;61199;47.526;8.538;2022-08-19T02:11:58;43.23;;;26.50;;
73023;SDS011;61199;47.526;8.538;2022-08-19T02:14:24;38.90;;;25.47;;
73023;SDS011;61199;47.526;8.538;2022-08-19T02:16:50;36.70;;;23.80;;
73023;SDS011;61199;47.526;8.538;2022-08-19T02:19:17;42.87;;;25.77;;
73023;SDS011;61199;47.526;8.538;2022-08-19T02:21:43;46.07;;;25.37;;
73023;SDS011;61199;47.526;8.538;2022-08-19T02:24:10;40.37;;;25.80;;
73023;SDS011;61199;47.526;8.538;2022-08-19T02:26:36;40.60;;;26.53;;
73023;SDS011;61199;47.526;8.538;2022-08-19T02:29:02;44.57;;;27.87;;
73023;SDS011;61199;47.526;8.538;2022-08-19T02:31:30;42.20;;;26.43;;
73023;SDS011;61199;47.526;8.538;2022-08-19T02:33:56;38.30;;;26.93;;
73023;SDS011;61199;47.526;8.538;2022-08-19T02:36:23;37.00;;;24.70;;
73023;SDS011;61199;47.526;8.538;2022-08-19T02:38:51;39.83;;;26.30;;
73023;SDS011;61199;47.526;8.538;2022-08-19T02:41:24;40.00;;;26.33;;
73023;SDS011;61199;47.526;8.538;2022-08-19T02:43:54;44.27;;;28.17;;
73023;SDS011;61199;47.526;8.538;2022-08-19T02:46:44;37.97;;;26.23;;
73023;SDS011;61199;47.526;8.538;2022-08-19T02:49:16;42.10;;;26.73;;
73023;SDS011;61199;47.526;8.538;2022-08-19T02:51:43;40.77;;;26.20;;
73023;SDS011;61199;47.526;8.538;2022-08-19T02:54:11;38.47;;;26.13;;
73023;SDS011;61199;47.526;8.538;2022-08-19T02:56:39;38.17;;;25.10;;
73023;SDS011;61199;47.526;8.538;2022-08-19T02:59:07;34.40;;;24.77;;
73023;SDS011;61199;47.526;8.538;2022-08-19T03:01:37;36.67;;;24.73;;
73023;SDS011;61199;47.526;8.538;2022-08-19T03:04:06;38.20;;;25.73;;
73023;SDS011;61199;47.526;8.538;2022-08-19T03:06:41;39.83;;;25.50;;
73023;SDS011;61199;47.526;8.538;2022-08-19T03:09:08;40.07;;;24.73;;
73023;SDS011;61199;47.526;8.538;2022-08-19T03:11:35;35.87;;;24.87;;
73023;SDS011;61199;47.526;8.538;2022-08-19T03:14:03;40.03;;;24.93;;
73023;SDS011;61199;47.526;8.538;2022-08-19T03:16:32;38.67;;;26.57;;
73023;SDS011;61199;47.526;8.538;2022-08-19T03:19:00;41.37;;;25.67;;
73023;SDS011;61199;47.526;8.538;2022-08-19T03:21:30;35.67;;;25.20;;
73023;SDS011;61199;47.526;8.538;2022-08-19T03:23:59;37.40;;;25.30;;
73023;SDS011;61199;47.526;8.538;2022-08-19T03:26:30;35.60;;;23.77;;
73023;SDS011;61199;47.526;8.538;2022-08-19T03:28:56;36.47;;;25.50;;
73023;SDS011;61199;47.526;8.538;2022-08-19T03:31:25;40.47;;;26.07;;
73023;SDS011;61199;47.526;8.538;2022-08-19T03:34:11;35.17;;;23.73;;
73023;SDS011;61199;47.526;8.538;2022-08-19T03:36:43;35.60;;;23.77;;
73023;SDS011;61199;47.526;8.538;2022-08-19T03:39:11;41.00;;;26.27;;
73023;SDS011;61199;47.526;8.538;2022-08-19T03:41:39;40.27;;;26.07;;
73023;SDS011;61199;47.526;8.538;2022-08-19T03:44:10;37.27;;;24.70;;
73023;SDS011;61199;47.526;8.538;2022-08-19T03:46:43;41.57;;;26.93;;
73023;SDS011;61199;47.526;8.538;2022-08-19T03:49:09;37.40;;;25.57;;
73023;SDS011;61199;47.526;8.538;2022-08-19T03:51:39;39.00;;;26.77;;
73023;SDS011;61199;47.526;8.538;2022-08-19T03:54:08;38.53;;;25.97;;
73023;SDS011;61199;47.526;8.538;2022-08-19T03:56:37;38.77;;;26.93;;
73023;SDS011;61199;47.526;8.538;2022-08-19T03:59:06;41.93;;;27.10;;
73023;SDS011;61199;47.526;8.538;2022-08-19T04:01:34;41.03;;;26.97;;
73023;SDS011;61199;47.526;8.538;2022-08-19T04:04:02;33.83;;;24.03;;
73023;SDS011;61199;47.526;8.538;2022-08-19T04:06:32;38.60;;;27.20;;
73023;SDS011;61199;47.526;8.538;2022-08-19T04:09:06;38.87;;;26.80;;
73023;SDS011;61199;47.526;8.538;2022-08-19T04:11:36;36.27;;;24.17;;
73023;SDS011;61199;47.526;8.538;2022-08-19T04:14:13;37.47;;;24.93;;
73023;SDS011;61199;47.526;8.538;2022-08-19T04:16:42;36.13;;;24.60;;
73023;SDS011;61199;47.526;8.538;2022-08-19T04:19:10;34.43;;;24.10;;
73023;SDS011;61199;47.526;8.538;2022-08-19T04:21:37;35.70;;;25.40;;
73023;SDS011;61199;47.526;8.538;2022-08-19T04:24:05;36.77;;;25.70;;
73023;SDS011;61199;47.526;8.538;2022-08-19T04:26:34;38.60;;;26.37;;
73023;SDS011;61199;47.526;8.538;2022-08-19T04:29:03;34.93;;;24.90;;
73023;SDS011;61199;47.526;8.538;2022-08-19T04:31:39;33.77;;;24.10;;
73023;SDS011;61199;47.526;8.538;2022-08-19T04:34:08;35.80;;;24.30;;
73023;SDS011;61199;47.526;8.538;2022-08-19T04:36:39;35.40;;;23.90;;
73023;SDS011;61199;47.526;8.538;2022-08-19T04:39:08;35.50;;;24.30;;
73023;SDS011;61199;47.526;8.538;2022-08-19T04:41:37;36.87;;;26.10;;
73023;SDS011;61199;47.526;8.538;2022-08-19T04:44:22;47.57;;;25.13;;
73023;SDS011;61199;47.526;8.538;2022-08-19T04:46:50;36.43;;;25.90;;
73023;SDS011;61199;47.526;8.538;2022-08-19T04:49:18;36.83;;;25.00;;
73023;SDS011;61199;47.526;8.538;2022-08-19T04:51:46;34.73;;;24.80;;
73023;SDS011;61199;47.526;8.538;2022-08-19T04:54:16;31.73;;;22.57;;
73023;SDS011;61199;47.526;8.538;2022-08-19T04:57:04;33.40;;;23.97;;
73023;SDS011;61199;47.526;8.538;2022-08-19T04:59:33;37.70;;;25.40;;
73023;SDS011;61199;47.526;8.538;2022-08-19T05:01:59;36.53;;;25.00;;
73023;SDS011;61199;47.526;8.538;2022-08-19T05:04:26;36.63;;;25.40;;
73023;SDS011;61199;47.526;8.538;2022-08-19T05:06:54;36.37;;;24.87;;
73023;SDS011;61199;47.526;8.538;2022-08-19T05:09:26;35.53;;;25.23;;
73023;SDS011;61199;47.526;8.538;2022-08-19T05:12:13;38.27;;;25.07;;
73023;SDS011;61199;47.526;8.538;2022-08-19T05:14:39;38.10;;;25.10;;
73023;SDS011;61199;47.526;8.538;2022-08-19T05:17:06;36.57;;;25.20;;
73023;SDS011;61199;47.526;8.538;2022-08-19T05:19:52;37.93;;;25.60;;
73023;SDS011;61199;47.526;8.538;2022-08-19T05:22:38;40.50;;;26.70;;
73023;SDS011;61199;47.526;8.538;2022-08-19T05:25:06;38.60;;;26.73;;
73023;SDS011;61199;47.526;8.538;2022-08-19T05:27:38;38.43;;;24.80;;
73023;SDS011;61199;47.526;8.538;2022-08-19T05:30:06;34.00;;;24.20;;
73023;SDS011;61199;47.526;8.538;2022-08-19T05:32:32;39.50;;;24.90;;
73023;SDS011;61199;47.526;8.538;2022-08-19T05:34:59;34.70;;;24.47;;
73023;SDS011;61199;47.526;8.538;2022-08-19T05:37:25;37.73;;;24.37;;
73023;SDS011;61199;47.526;8.538;2022-08-19T05:39:53;37.10;;;25.43;;
73023;SDS011;61199;47.526;8.538;2022-08-19T05:42:20;35.23;;;23.87;;
73023;SDS011;61199;47.526;8.538;2022-08-19T05:44:48;33.00;;;23.13;;
73023;SDS011;61199;47.526;8.538;2022-08-19T05:47:16;34.53;;;23.63;;
73023;SDS011;61199;47.526;8.538;2022-08-19T05:49:45;33.93;;;24.13;;
73023;SDS011;61199;47.526;8.538;2022-08-19T05:52:13;34.30;;;24.00;;
73023;SDS011;61199;47.526;8.538;2022-08-19T05:54:44;42.43;;;25.43;;
73023;SDS011;61199;47.526;8.538;2022-08-19T05:57:16;31.17;;;21.27;;
73023;SDS011;61199;47.526;8.538;2022-08-19T05:59:43;39.73;;;22.43;;
73023;SDS011;61199;47.526;8.538;2022-08-19T06:02:12;32.00;;;21.23;;
73023;SDS011;61199;47.526;8.538;2022-08-19T06:04:39;32.13;;;22.50;;
73023;SDS011;61199;47.526;8.538;2022-08-19T06:07:08;33.90;;;23.63;;
73023;SDS011;61199;47.526;8.538;2022-08-19T06:09:38;38.23;;;25.07;;
73023;SDS011;61199;47.526;8.538;2022-08-19T06:12:05;35.83;;;23.83;;
73023;SDS011;61199;47.526;8.538;2022-08-19T06:14:33;33.60;;;23.87;;
73023;SDS011;61199;47.526;8.538;2022-08-19T06:17:07;32.67;;;22.47;;
73023;SDS011;61199;47.526;8.538;2022-08-19T06:19:34;33.00;;;20.77;;
73023;SDS011;61199;47.526;8.538;2022-08-19T06:22:06;33.63;;;21.83;;
73023;SDS011;61199;47.526;8.538;2022-08-19T06:24:33;34.20;;;20.73;;
73023;SDS011;61199;47.526;8.538;2022-08-19T06:27:00;30.03;;;20.20;;
73023;SDS011;61199;47.526;8.538;2022-08-19T06:29:27;33.90;;;21.20;;
73023;SDS011;61199;47.526;8.538;2022-08-19T06:31:56;28.83;;;20.70;;
73023;SDS011;61199;47.526;8.538;2022-08-19T06:34:24;28.57;;;20.57;;
73023;SDS011;61199;47.526;8.538;2022-08-19T06:36:53;31.47;;;20.43;;
73023;SDS011;61199;47.526;8.538;2022-08-19T06:39:22;27.73;;;20.10;;
73023;SDS011;61199;47.526;8.538;2022-08-19T06:41:51;26.33;;;18.70;;
73023;SDS011;61199;47.526;8.538;2022-08-19T06:44:24;31.77;;;20.17;;
73023;SDS011;61199;47.526;8.538;2022-08-19T06:46:57;30.67;;;19.60;;
73023;SDS011;61199;47.526;8.538;2022-08-19T06:49:23;30.00;;;19.00;;
73023;SDS011;61199;47.526;8.538;2022-08-19T06:51:51;26.60;;;18.60;;
73023;SDS011;61199;47.526;8.538;2022-08-19T06:54:18;27.10;;;20.00;;
73023;SDS011;61199;47.526;8.538;2022-08-19T06:56:46;29.03;;;20.03;;
73023;SDS011;61199;47.526;8.538;2022-08-19T06:59:16;29.70;;;20.43;;
73023;SDS011;61199;47.526;8.538;2022-08-19T07:01:49;29.97;;;21.33;;
73023;SDS011;61199;47.526;8.538;2022-08-19T07:04:19;29.17;;;19.83;;
73023;SDS011;61199;47.526;8.538;2022-08-19T07:06:50;37.70;;;22.47;;
73023;SDS011;61199;47.526;8.538;2022-08-19T07:09:25;33.07;;;20.90;;
73023;SDS011;61199;47.526;8.538;2022-08-19T07:11:55;33.53;;;20.53;;
73023;SDS011;61199;47.526;8.538;2022-08-19T07:14:23;27.03;;;19.97;;
73023;SDS011;61199;47.526;8.538;2022-08-19T07:16:53;30.87;;;21.37;;
73023;SDS011;61199;47.526;8.538;2022-08-19T07:19:22;28.60;;;21.00;;
73023;SDS011;61199;47.526;8.538;2022-08-19T07:21:52;31.63;;;20.17;;
73023;SDS011;61199;47.526;8.538;2022-08-19T07:24:20;30.13;;;21.33;;
73023;SDS011;61199;47.526;8.538;2022-08-19T07:26:50;32.13;;;21.23;;
73023;SDS011;61199;47.526;8.538;2022-08-19T07:29:18;26.40;;;19.37;;
73023;SDS011;61199;47.526;8.538;2022-08-19T07:31:51;34.03;;;20.60;;
73023;SDS011;61199;47.526;8.538;2022-08-19T07:34:19;28.07;;;21.00;;
73023;SDS011;61199;47.526;8.538;2022-08-19T07:36:45;27.30;;;19.50;;
73023;SDS011;61199;47.526;8.538;2022-08-19T07:39:14;26.90;;;19.87;;
73023;SDS011;61199;47.526;8.538;2022-08-19T07:41:43;26.20;;;17.50;;
73023;SDS011;61199;47.526;8.538;2022-08-19T07:44:11;25.30;;;19.27;;
73023;SDS011;61199;47.526;8.538;2022-08-19T07:46:41;24.13;;;16.73;;
73023;SDS011;61199;47.526;8.538;2022-08-19T07:49:13;22.43;;;17.70;;
73023;SDS011;61199;47.526;8.538;2022-08-19T07:51:45;26.63;;;19.30;;
73023;SDS011;61199;47.526;8.538;2022-08-19T07:54:15;24.87;;;18.87;;
73023;SDS011;61199;47.526;8.538;2022-08-19T07:56:41;26.23;;;18.47;;
73023;SDS011;61199;47.526;8.538;2022-08-19T07:59:08;25.93;;;18.53;;
73023;SDS011;61199;47.526;8.538;2022-08-19T08:01:35;27.90;;;18.80;;
73023;SDS011;61199;47.526;8.538;2022-08-19T08:04:07;27.00;;;18.87;;
73023;SDS011;61199;47.526;8.538;2022-08-19T08:06:52;26.50;;;18.77;;
73023;SDS011;61199;47.526;8.538;2022-08-19T08:09:39;26.00;;;17.70;;
73023;SDS011;61199;47.526;8.538;2022-08-19T08:12:16;27.27;;;19.10;;
73023;SDS011;61199;47.526;8.538;2022-08-19T08:15:00;27.30;;;18.97;;
73023;SDS011;61199;47.526;8.538;2022-08-19T08:17:33;23.43;;;18.00;;
73023;SDS011;61199;47.526;8.538;2022-08-19T08:20:16;23.03;;;17.13;;
73023;SDS011;61199;47.526;8.538;2022-08-19T08:22:44;27.17;;;19.00;;
73023;SDS011;61199;47.526;8.538;2022-08-19T08:25:30;24.60;;;18.70;;
73023;SDS011;61199;47.526;8.538;2022-08-19T08:27:57;25.20;;;19.57;;
73023;SDS011;61199;47.526;8.538;2022-08-19T08:30:26;30.20;;;20.73;;
73023;SDS011;61199;47.526;8.538;2022-08-19T08:32:56;31.43;;;20.90;;
73023;SDS011;61199;47.526;8.538;2022-08-19T08:35:23;27.67;;;20.50;;
73023;SDS011;61199;47.526;8.538;2022-08-19T08:37:51;28.87;;;20.50;;
73023;SDS011;61199;47.526;8.538;2022-08-19T08:45:38;32.77;;;23.10;;
73023;SDS011;61199;47.526;8.538;2022-08-19T08:48:36;32.27;;;23.57;;
73023;SDS011;61199;47.526;8.538;2022-08-19T08:51:09;36.87;;;23.90;;
73023;SDS011;61199;47.526;8.538;2022-08-19T08:53:45;32.67;;;22.70;;
73023;SDS011;61199;47.526;8.538;2022-08-19T08:56:21;39.33;;;24.60;;
73023;SDS011;61199;47.526;8.538;2022-08-19T08:59:02;39.23;;;25.40;;
73023;SDS011;61199;47.526;8.538;2022-08-19T09:01:47;36.50;;;25.23;;
73023;SDS011;61199;47.526;8.538;2022-08-19T09:04:14;36.60;;;25.80;;
73023;SDS011;61199;47.526;8.538;2022-08-19T09:17:17;43.97;;;28.57;;
73023;SDS011;61199;47.526;8.538;2022-08-19T09:19:51;43.30;;;27.63;;
73023;SDS011;61199;47.526;8.538;2022-08-19T09:22:19;43.67;;;28.97;;
73023;SDS011;61199;47.526;8.538;2022-08-19T09:24:52;46.33;;;30.20;;
73023;SDS011;61199;47.526;8.538;2022-08-19T09:27:20;45.97;;;30.50;;
73023;SDS011;61199;47.526;8.538;2022-08-19T09:30:07;47.83;;;30.30;;
73023;SDS011;61199;47.526;8.538;2022-08-19T09:32:36;49.33;;;29.60;;
73023;SDS011;61199;47.526;8.538;2022-08-19T09:35:05;42.17;;;29.07;;
73023;SDS011;61199;47.526;8.538;2022-08-19T09:37:34;51.43;;;32.93;;
73023;SDS011;61199;47.526;8.538;2022-08-19T09:40:01;45.60;;;30.27;;
73023;SDS011;61199;47.526;8.538;2022-08-19T09:42:27;46.63;;;29.70;;
73023;SDS011;61199;47.526;8.538;2022-08-19T09:45:00;47.47;;;31.57;;
73023;SDS011;61199;47.526;8.538;2022-08-19T09:47:30;46.53;;;29.83;;
73023;SDS011;61199;47.526;8.538;2022-08-19T09:49:56;52.17;;;32.03;;
73023;SDS011;61199;47.526;8.538;2022-08-19T09:52:24;45.47;;;30.70;;
73023;SDS011;61199;47.526;8.538;2022-08-19T09:54:58;49.03;;;31.73;;
73023;SDS011;61199;47.526;8.538;2022-08-19T09:57:24;46.00;;;32.67;;
73023;SDS011;61199;47.526;8.538;2022-08-19T09:59:51;50.10;;;31.73;;
73023;SDS011;61199;47.526;8.538;2022-08-19T10:02:17;55.13;;;32.07;;
73023;SDS011;61199;47.526;8.538;2022-08-19T10:04:47;45.87;;;31.33;;
73023;SDS011;61199;47.526;8.538;2022-08-19T10:07:32;52.50;;;34.00;;
73023;SDS011;61199;47.526;8.538;2022-08-19T10:10:03;51.10;;;33.03;;
73023;SDS011;61199;47.526;8.538;2022-08-19T10:12:33;52.77;;;33.00;;
73023;SDS011;61199;47.526;8.538;2022-08-19T10:15:00;53.43;;;36.07;;
73023;SDS011;61199;47.526;8.538;2022-08-19T10:17:27;53.77;;;34.87;;
73023;SDS011;61199;47.526;8.538;2022-08-19T10:19:58;53.87;;;33.47;;
73023;SDS011;61199;47.526;8.538;2022-08-19T10:22:26;57.77;;;34.77;;
73023;SDS011;61199;47.526;8.538;2022-08-19T10:24:52;69.50;;;42.03;;
73023;SDS011;61199;47.526;8.538;2022-08-19T10:27:19;55.20;;;35.37;;
73023;SDS011;61199;47.526;8.538;2022-08-19T10:29:45;55.67;;;37.43;;
73023;SDS011;61199;47.526;8.538;2022-08-19T10:32:13;53.20;;;36.37;;
73023;SDS011;61199;47.526;8.538;2022-08-19T10:34:40;51.90;;;34.50;;
73023;SDS011;61199;47.526;8.538;2022-08-19T10:37:15;50.60;;;34.27;;
73023;SDS011;61199;47.526;8.538;2022-08-19T10:39:54;51.27;;;34.43;;
73023;SDS011;61199;47.526;8.538;2022-08-19T10:42:21;57.17;;;36.97;;
73023;SDS011;61199;47.526;8.538;2022-08-19T10:44:47;53.93;;;36.17;;
73023;SDS011;61199;47.526;8.538;2022-08-19T10:47:17;50.20;;;33.60;;
73023;SDS011;61199;47.526;8.538;2022-08-19T10:49:51;52.93;;;34.13;;
73023;SDS011;61199;47.526;8.538;2022-08-19T10:52:39;49.07;;;33.47;;
73023;SDS011;61199;47.526;8.538;2022-08-19T10:55:15;49.70;;;33.53;;
73023;SDS011;61199;47.526;8.538;2022-08-19T10:58:12;48.33;;;32.30;;
73023;SDS011;61199;47.526;8.538;2022-08-19T11:00:40;50.47;;;32.30;;
73023;SDS011;61199;47.526;8.538;2022-08-19T11:03:09;54.50;;;37.03;;
73023;SDS011;61199;47.526;8.538;2022-08-19T11:05:36;57.43;;;37.03;;
73023;SDS011;61199;47.526;8.538;2022-08-19T11:08:05;47.30;;;33.83;;
73023;SDS011;61199;47.526;8.538;2022-08-19T11:10:49;57.73;;;37.00;;
73023;SDS011;61199;47.526;8.538;2022-08-19T11:13:16;66.43;;;37.13;;
73023;SDS011;61199;47.526;8.538;2022-08-19T11:15:42;53.07;;;36.93;;
73023;SDS011;61199;47.526;8.538;2022-08-19T11:18:09;55.70;;;36.93;;
73023;SDS011;61199;47.526;8.538;2022-08-19T11:20:38;60.10;;;36.13;;
73023;SDS011;61199;47.526;8.538;2022-08-19T11:23:05;59.60;;;38.93;;
73023;SDS011;61199;47.526;8.538;2022-08-19T11:25:31;53.63;;;34.97;;
73023;SDS011;61199;47.526;8.538;2022-08-19T11:27:57;59.20;;;39.70;;
73023;SDS011;61199;47.526;8.538;2022-08-19T11:30:24;60.63;;;39.00;;
73023;SDS011;61199;47.526;8.538;2022-08-19T11:32:50;62.23;;;38.33;;
73023;SDS011;61199;47.526;8.538;2022-08-19T11:35:17;59.37;;;40.10;;
73023;SDS011;61199;47.526;8.538;2022-08-19T11:37:45;59.93;;;38.63;;
73023;SDS011;61199;47.526;8.538;2022-08-19T11:40:12;65.50;;;40.87;;
73023;SDS011;61199;47.526;8.538;2022-08-19T11:42:38;64.90;;;39.53;;
73023;SDS011;61199;47.526;8.538;2022-08-19T11:45:23;64.40;;;40.23;;
73023;SDS011;61199;47.526;8.538;2022-08-19T11:47:52;61.57;;;40.20;;
73023;SDS011;61199;47.526;8.538;2022-08-19T11:50:19;61.53;;;39.13;;
73023;SDS011;61199;47.526;8.538;2022-08-19T11:52:46;64.33;;;42.07;;
73023;SDS011;61199;47.526;8.538;2022-08-19T11:55:13;58.10;;;37.17;;
73023;SDS011;61199;47.526;8.538;2022-08-19T11:57:40;61.53;;;39.27;;
73023;SDS011;61199;47.526;8.538;2022-08-19T12:00:07;65.80;;;40.03;;
73023;SDS011;61199;47.526;8.538;2022-08-19T12:02:34;59.60;;;38.00;;
73023;SDS011;61199;47.526;8.538;2022-08-19T12:05:01;62.57;;;39.67;;
73023;SDS011;61199;47.526;8.538;2022-08-19T12:07:36;61.20;;;39.60;;
73023;SDS011;61199;47.526;8.538;2022-08-19T12:10:03;65.07;;;40.77;;
73023;SDS011;61199;47.526;8.538;2022-08-19T12:12:30;68.63;;;42.50;;
73023;SDS011;61199;47.526;8.538;2022-08-19T12:14:56;64.93;;;41.47;;
73023;SDS011;61199;47.526;8.538;2022-08-19T12:17:25;63.30;;;41.63;;
73023;SDS011;61199;47.526;8.538;2022-08-19T12:19:53;65.50;;;42.87;;
73023;SDS011;61199;47.526;8.538;2022-08-19T12:22:20;70.27;;;44.63;;
73023;SDS011;61199;47.526;8.538;2022-08-19T12:24:47;68.53;;;44.63;;
73023;SDS011;61199;47.526;8.538;2022-08-19T12:27:16;69.00;;;44.30;;
73023;SDS011;61199;47.526;8.538;2022-08-19T12:30:03;70.67;;;45.90;;
73023;SDS011;61199;47.526;8.538;2022-08-19T12:32:32;73.63;;;45.70;;
73023;SDS011;61199;47.526;8.538;2022-08-19T12:34:58;65.83;;;40.73;;
73023;SDS011;61199;47.526;8.538;2022-08-19T12:37:25;70.20;;;43.77;;
73023;SDS011;61199;47.526;8.538;2022-08-19T12:39:51;70.60;;;44.57;;
73023;SDS011;61199;47.526;8.538;2022-08-19T12:42:18;69.50;;;45.10;;
73023;SDS011;61199;47.526;8.538;2022-08-19T12:44:45;69.63;;;44.17;;
73023;SDS011;61199;47.526;8.538;2022-08-19T12:47:12;66.43;;;45.87;;
73023;SDS011;61199;47.526;8.538;2022-08-19T12:49:40;64.50;;;43.10;;
73023;SDS011;61199;47.526;8.538;2022-08-19T12:52:19;66.77;;;42.30;;
73023;SDS011;61199;47.526;8.538;2022-08-19T12:54:48;69.73;;;45.27;;
73023;SDS011;61199;47.526;8.538;2022-08-19T12:57:20;67.33;;;43.60;;
73023;SDS011;61199;47.526;8.538;2022-08-19T12:59:52;67.67;;;42.20;;
73023;SDS011;61199;47.526;8.538;2022-08-19T13:02:19;66.30;;;43.90;;
73023;SDS011;61199;47.526;8.538;2022-08-19T13:04:46;71.77;;;44.93;;
73023;SDS011;61199;47.526;8.538;2022-08-19T13:07:12;71.20;;;43.43;;
73023;SDS011;61199;47.526;8.538;2022-08-19T13:09:39;71.10;;;44.80;;
73023;SDS011;61199;47.526;8.538;2022-08-19T13:12:08;67.40;;;43.63;;
73023;SDS011;61199;47.526;8.538;2022-08-19T13:14:39;70.83;;;45.63;;
73023;SDS011;61199;47.526;8.538;2022-08-19T13:17:06;66.67;;;43.47;;
73023;SDS011;61199;47.526;8.538;2022-08-19T13:19:32;66.50;;;43.10;;
73023;SDS011;61199;47.526;8.538;2022-08-19T13:22:02;65.67;;;43.13;;
73023;SDS011;61199;47.526;8.538;2022-08-19T13:24:28;68.50;;;44.57;;
73023;SDS011;61199;47.526;8.538;2022-08-19T13:26:59;69.93;;;42.90;;
73023;SDS011;61199;47.526;8.538;2022-08-19T13:29:26;63.83;;;42.87;;
73023;SDS011;61199;47.526;8.538;2022-08-19T13:32:11;65.27;;;42.93;;
73023;SDS011;61199;47.526;8.538;2022-08-19T13:34:56;63.97;;;42.37;;
73023;SDS011;61199;47.526;8.538;2022-08-19T13:37:22;68.73;;;44.70;;
73023;SDS011;61199;47.526;8.538;2022-08-19T13:40:08;67.13;;;44.63;;
73023;SDS011;61199;47.526;8.538;2022-08-19T13:42:42;66.20;;;43.53;;
73023;SDS011;61199;47.526;8.538;2022-08-19T13:45:10;64.60;;;42.93;;
73023;SDS011;61199;47.526;8.538;2022-08-19T13:47:37;67.13;;;46.20;;
73023;SDS011;61199;47.526;8.538;2022-08-19T13:50:11;71.00;;;46.17;;
73023;SDS011;61199;47.526;8.538;2022-08-19T13:52:39;71.77;;;47.83;;
73023;SDS011;61199;47.526;8.538;2022-08-19T13:55:07;70.80;;;46.80;;
73023;SDS011;61199;47.526;8.538;2022-08-19T13:57:35;73.27;;;46.93;;
73023;SDS011;61199;47.526;8.538;2022-08-19T14:00:03;72.40;;;46.37;;
73023;SDS011;61199;47.526;8.538;2022-08-19T14:02:31;70.80;;;43.77;;
73023;SDS011;61199;47.526;8.538;2022-08-19T14:04:58;73.70;;;44.73;;
73023;SDS011;61199;47.526;8.538;2022-08-19T14:07:24;70.73;;;43.43;;
73023;SDS011;61199;47.526;8.538;2022-08-19T14:09:51;67.60;;;45.90;;
73023;SDS011;61199;47.526;8.538;2022-08-19T14:12:21;65.00;;;43.80;;
73023;SDS011;61199;47.526;8.538;2022-08-19T14:14:54;71.53;;;43.40;;
73023;SDS011;61199;47.526;8.538;2022-08-19T14:17:20;68.90;;;43.37;;
73023;SDS011;61199;47.526;8.538;2022-08-19T14:19:47;68.70;;;41.87;;
73023;SDS011;61199;47.526;8.538;2022-08-19T14:22:14;76.03;;;45.47;;
73023;SDS011;61199;47.526;8.538;2022-08-19T14:24:47;62.83;;;41.87;;
73023;SDS011;61199;47.526;8.538;2022-08-19T14:27:14;64.17;;;41.03;;
73023;SDS011;61199;47.526;8.538;2022-08-19T14:29:40;60.20;;;40.13;;
73023;SDS011;61199;47.526;8.538;2022-08-19T14:32:07;68.60;;;42.63;;
73023;SDS011;61199;47.526;8.538;2022-08-19T14:34:38;66.70;;;44.37;;
73023;SDS011;61199;47.526;8.538;2022-08-19T14:37:04;63.50;;;42.60;;
73023;SDS011;61199;47.526;8.538;2022-08-19T14:39:32;63.57;;;41.37;;
73023;SDS011;61199;47.526;8.538;2022-08-19T14:41:58;65.23;;;42.53;;
73023;SDS011;61199;47.526;8.538;2022-08-19T14:44:25;72.83;;;41.83;;
73023;SDS011;61199;47.526;8.538;2022-08-19T14:46:52;72.07;;;41.20;;
73023;SDS011;61199;47.526;8.538;2022-08-19T14:49:19;65.57;;;41.40;;
73023;SDS011;61199;47.526;8.538;2022-08-19T14:51:57;61.23;;;40.10;;
73023;SDS011;61199;47.526;8.538;2022-08-19T14:54:23;57.63;;;37.87;;
73023;SDS011;61199;47.526;8.538;2022-08-19T14:56:52;57.13;;;37.80;;